^^
Datos históricos de la estación: Murcia-Puente Tocinos
Diario Informe para Noviembre 26, 2021 Unidades:  Ingés    Métrico   Ambas
Diario Semanal Mensual Anual
  Máxima: Mínima: Promedio:
Temperatura: 59.5 °F 45.1 °F 52.5 °F
Punto de rocio: 39.4 °F 35.4 °F 37.4 °F
Humedad: 76% 41.3% 58%
Velocidad viento: 14.5mph 1.4mph 6.3mph
Racha viento: 25.6mph - -
Viento- - SO
Presión: 29.8 in 29.7 in -
Precipitación: 0 in    
 
 
Tabla de datos para Noviembre 26, 2021
Hora Temperatura Punto de rocio Presión Viento Velocidad viento Racha viento Humedad Intensidad lluvia(por hora) Nubes
00:04 50.4 °F 39.4 °F 29.8 in SSO 3.6 mph 5.8 mph 66.1% 0 in
00:09 50.4 °F 39.4 °F 29.8 in SSO 3.7 mph 5.8 mph 66% 0 in
00:14 50.4 °F 39.4 °F 29.8 in SSO 4 mph 6.9 mph 66% 0 in
00:19 50.4 °F 39.4 °F 29.8 in SSO 4.1 mph 6.9 mph 66% 0 in
00:24 50.4 °F 39.4 °F 29.8 in SO 4.3 mph 5.8 mph 66% 0 in
00:29 50.4 °F 39.4 °F 29.8 in OSO 4 mph 5.8 mph 66% 0 in
00:34 50.2 °F 39.4 °F 29.8 in SO 3.6 mph 7.4 mph 66% 0 in
00:39 50.2 °F 39.4 °F 29.8 in SO 4 mph 8.5 mph 66% 0 in
00:44 50.2 °F 39.2 °F 29.8 in SO 4.7 mph 6.9 mph 65.8% 0 in
00:49 50.2 °F 38.8 °F 29.8 in OSO 4.5 mph 5.8 mph 65% 0 in
00:54 50.2 °F 38.8 °F 29.8 in Oeste 4 mph 2.4 mph 65% 0 in
00:59 50 °F 38.8 °F 29.8 in ONO 3.2 mph 3.6 mph 65.3% 0 in
01:04 49.6 °F 38.8 °F 29.8 in NE 1.8 mph 4.6 mph 66.3% 0 in
01:09 49.3 °F 39 °F 29.8 in NE 1.9 mph 2.4 mph 67.6% 0 in
01:14 48.9 °F 38.8 °F 29.8 in NE 2 mph 2.3 mph 68.3% 0 in
01:19 48.7 °F 38.8 °F 29.8 in NNO 1.8 mph 3.5 mph 69% 0 in
01:24 48.6 °F 39 °F 29.8 in Oeste 1.4 mph 3.6 mph 69.9% 0 in
01:29 48.2 °F 39 °F 29.8 in OSO 1.6 mph 4.6 mph 70.3% 0 in
01:34 48 °F 39 °F 29.8 in SO 2 mph 5.4 mph 71% 0 in
01:39 48 °F 39 °F 29.8 in SO 2.5 mph 6.9 mph 71% 0 in
01:44 48 °F 38.8 °F 29.8 in OSO 3.6 mph 4.6 mph 70.1% 0 in
01:49 48.2 °F 38.8 °F 29.8 in OSO 3.4 mph 4.6 mph 70% 0 in
01:54 48 °F 38.7 °F 29.8 in OSO 2.9 mph 3.5 mph 70% 0 in
01:59 48 °F 38.7 °F 29.8 in Sur 2.7 mph 8.1 mph 70.1% 0 in
02:04 47.8 °F 38.8 °F 29.8 in SSE 2.4 mph 8.1 mph 70.6% 0 in
02:09 47.5 °F 38.8 °F 29.8 in Sur 3 mph 5.8 mph 71.6% 0 in
02:14 47.3 °F 38.7 °F 29.8 in SSE 4 mph 6.9 mph 72% 0 in
02:19 46.9 °F 38.7 °F 29.8 in Sur 4.2 mph 9.2 mph 73% 0 in
02:24 46.9 °F 38.7 °F 29.8 in SSO 4.7 mph 8.5 mph 73% 0 in
02:29 47.1 °F 38.8 °F 29.8 in SSO 4.8 mph 8.1 mph 73% 0 in
02:34 47.1 °F 38.7 °F 29.8 in SSO 5.2 mph 9.2 mph 72.4% 0 in
02:39 47.3 °F 38.7 °F 29.8 in SO 5.3 mph 6.9 mph 72% 0 in
02:44 47.3 °F 38.7 °F 29.8 in SO 5.4 mph 6.9 mph 72% 0 in
02:49 47.3 °F 38.7 °F 29.8 in SSO 4.9 mph 6.9 mph 72% 0 in
02:54 47.3 °F 38.7 °F 29.8 in SSO 4 mph 6.9 mph 72% 0 in
02:59 47.3 °F 38.7 °F 29.8 in SSO 4 mph 6.9 mph 72% 0 in
03:04 47.1 °F 38.7 °F 29.8 in Sur 4 mph 8.1 mph 72% 0 in
03:09 47.1 °F 38.5 °F 29.8 in Sur 4.4 mph 7.4 mph 72% 0 in
03:14 46.9 °F 38.5 °F 29.8 in SSO 5.2 mph 6.9 mph 72% 0 in
03:19 46.9 °F 38.5 °F 29.8 in SO 4.9 mph 6.9 mph 72% 0 in
03:24 46.9 °F 38.3 °F 29.8 in SSO 4.3 mph 7.4 mph 71.4% 0 in
03:29 46.9 °F 38.1 °F 29.8 in SSO 4.3 mph 6.9 mph 71% 0 in
03:34 46.9 °F 37.9 °F 29.8 in Sur 4.3 mph 6.9 mph 71% 0 in
03:39 46.9 °F 38.1 °F 29.8 in Sur 4.6 mph 6.9 mph 71.2% 0 in
03:44 46.8 °F 38.3 °F 29.8 in SSO 5.2 mph 5.9 mph 72% 0 in
03:49 46.8 °F 38.1 °F 29.8 in SSO 4.4 mph 5.8 mph 72% 0 in
03:54 46.8 °F 38.1 °F 29.8 in Sur 2.9 mph 6.2 mph 71.9% 0 in
03:59 46.8 °F 37.9 °F 29.8 in Sur 3 mph 6.2 mph 71% 0 in
04:04 46.8 °F 37.9 °F 29.8 in SSE 3.1 mph 5.9 mph 71% 0 in
04:09 46.8 °F 37.9 °F 29.8 in SSO 3.4 mph 5.8 mph 71% 0 in
04:14 46.8 °F 38.1 °F 29.8 in SO 4 mph 4.6 mph 71.9% 0 in
04:19 46.8 °F 38.1 °F 29.8 in OSO 3.5 mph 4.6 mph 71.6% 0 in
04:24 46.8 °F 37.9 °F 29.8 in OSO 2.4 mph 4.7 mph 71% 0 in
04:29 46.6 °F 38.1 °F 29.8 in OSO 2.4 mph 4.6 mph 71.9% 0 in
04:34 46.6 °F 37.9 °F 29.8 in SO 2.4 mph 4.6 mph 72% 0 in
04:39 46.6 °F 37.9 °F 29.8 in SO 2.2 mph 2.3 mph 72% 0 in
04:44 46.4 °F 37.9 °F 29.8 in OSO 1.8 mph 2.3 mph 72% 0 in
04:49 46.4 °F 38.1 °F 29.8 in SO 1.7 mph 4.6 mph 72.5% 0 in
04:54 46.2 °F 37.9 °F 29.8 in Sur 1.4 mph 5.2 mph 73% 0 in
04:59 46 °F 37.9 °F 29.8 in SO 2.1 mph 5.2 mph 73% 0 in
05:04 45.9 °F 37.9 °F 29.8 in SSO 3.1 mph 4.6 mph 73.8% 0 in
05:09 45.9 °F 37.9 °F 29.8 in SO 3 mph 4.7 mph 74% 0 in
05:14 45.7 °F 37.9 °F 29.8 in OSO 2.9 mph 4.6 mph 74% 0 in
05:19 45.7 °F 37.9 °F 29.8 in SO 2.7 mph 5.2 mph 74.6% 0 in
05:24 45.5 °F 37.9 °F 29.8 in Sur 2.4 mph 4.6 mph 75% 0 in
05:29 45.5 °F 37.9 °F 29.8 in SO 2.6 mph 4.6 mph 75% 0 in
05:34 45.5 °F 37.9 °F 29.8 in SO 2.9 mph 4.6 mph 75% 0 in
05:39 45.5 °F 37.9 °F 29.8 in SSE 2.7 mph 4.6 mph 75% 0 in
05:44 45.5 °F 38.1 °F 29.8 in SSE 2.4 mph 3.5 mph 75% 0 in
05:49 45.5 °F 38.1 °F 29.8 in SE 2.1 mph 3.5 mph 75% 0 in
05:54 45.3 °F 37.9 °F 29.8 in NE 1.4 mph 3.5 mph 75% 0 in
05:59 45.3 °F 37.9 °F 29.8 in NE 1.6 mph 2.9 mph 75% 0 in
06:04 45.1 °F 37.8 °F 29.8 in NNE 1.8 mph 3.6 mph 75.1% 0 in
06:09 45.1 °F 37.9 °F 29.8 in ONO 1.9 mph 4.6 mph 76% 0 in
06:14 45.1 °F 37.9 °F 29.8 in Oeste 2 mph 4.7 mph 76% 0 in
06:19 45.1 °F 37.9 °F 29.8 in SO 2.3 mph 5.4 mph 76% 0 in
06:24 45.1 °F 38.1 °F 29.8 in Sur 2.9 mph 7.4 mph 76% 0 in
06:29 45.3 °F 38.1 °F 29.8 in Sur 3.7 mph 8.1 mph 75.7% 0 in
06:34 45.3 °F 37.9 °F 29.8 in Sur 5.2 mph 7.4 mph 75% 0 in
06:39 45.3 °F 37.9 °F 29.8 in SO 4.8 mph 5.8 mph 75% 0 in
06:44 45.7 °F 38.1 °F 29.8 in SO 4 mph 3.6 mph 75% 0 in
06:49 45.7 °F 38.3 °F 29.8 in SSO 3.4 mph 3.5 mph 75% 0 in
06:54 45.9 °F 38.5 °F 29.8 in SO 2.4 mph 3.5 mph 75% 0 in
06:59 46 °F 38.7 °F 29.8 in SSO 2.2 mph 5.2 mph 75% 0 in
07:04 46.2 °F 38.5 °F 29.8 in Sur 2 mph 5.2 mph 74% 0 in
07:09 46.8 °F 38.7 °F 29.8 in Sur 2.3 mph 5.2 mph 73.6% 0 in
07:14 46.8 °F 38.7 °F 29.8 in Sur 2.9 mph 4.7 mph 73% 0 in
07:19 46.9 °F 38.7 °F 29.8 in Sur 3.2 mph 6.9 mph 73% 0 in
07:24 47.1 °F 38.8 °F 29.8 in SSO 3.6 mph 4.6 mph 73% 0 in
07:29 47.1 °F 38.8 °F 29.8 in SSO 3.4 mph 4.6 mph 73% 0 in
07:34 47.3 °F 39 °F 29.8 in SO 2.9 mph 5.2 mph 72.6% 0 in
07:39 47.5 °F 38.8 °F 29.8 in SO 2.9 mph 4.7 mph 72% 0 in
07:44 47.7 °F 39 °F 29.8 in SSO 2.9 mph 6.4 mph 72% 0 in
07:49 47.7 °F 39.2 °F 29.8 in Sur 3.2 mph 6.9 mph 72% 0 in
07:54 47.7 °F 39 °F 29.8 in Sur 3.6 mph 5.9 mph 72.2% 0 in
07:59 47.5 °F 39.4 °F 29.8 in SSO 3.9 mph 7.4 mph 73% 0 in
08:04 47.7 °F 39.2 °F 29.8 in SSO 4.3 mph 6.9 mph 72.4% 0 in
08:09 47.8 °F 39 °F 29.8 in SO 4.3 mph 6.9 mph 71.8% 0 in
08:14 48 °F 39 °F 29.8 in SSO 4.3 mph 6.9 mph 71% 0 in
08:19 48 °F 38.8 °F 29.8 in SSO 4.3 mph 6.9 mph 70.1% 0 in
08:24 48.2 °F 38.8 °F 29.8 in SSO 4.3 mph 6.9 mph 70% 0 in
08:29 48.2 °F 39 °F 29.8 in SSO 4.3 mph 6.9 mph 70% 0 in
08:34 48.4 °F 38.8 °F 29.8 in SSO 4.3 mph 11.5 mph 69.3% 0 in
08:39 48.6 °F 38.8 °F 29.8 in SSO 4.7 mph 10.4 mph 69% 0 in
08:44 48.6 °F 38.7 °F 29.8 in SO 5.4 mph 9.2 mph 68.5% 0 in
08:49 48.7 °F 38.7 °F 29.8 in SO 5.4 mph 10.4 mph 68% 0 in
08:54 48.9 °F 38.7 °F 29.8 in SSO 5.4 mph 10.4 mph 67.4% 0 in
08:59 49.5 °F 38.7 °F 29.8 in SSO 5.7 mph 9.2 mph 66.5% 0 in
09:04 49.6 °F 38.7 °F 29.8 in SO 6.2 mph 9.2 mph 66% 0 in
09:09 49.8 °F 38.7 °F 29.8 in SO 5.8 mph 8.5 mph 65.4% 0 in
09:14 50.2 °F 38.8 °F 29.8 in SO 5.2 mph 8.1 mph 65% 0 in
09:19 50.2 °F 38.8 °F 29.8 in SO 5 mph 9.2 mph 65% 0 in
09:24 50.4 °F 39 °F 29.8 in SSO 4.7 mph 9.2 mph 65% 0 in
09:29 50.5 °F 39 °F 29.8 in SSO 4.7 mph 8.1 mph 65% 0 in
09:34 50.5 °F 39.2 °F 29.8 in SSO 4.7 mph 10.7 mph 65% 0 in
09:39 50.5 °F 39.2 °F 29.8 in SO 5.2 mph 11.5 mph 65% 0 in
09:44 50.7 °F 39.2 °F 29.8 in SO 5.9 mph 13.8 mph 64.4% 0 in
09:49 50.7 °F 39 °F 29.8 in SO 6 mph 11.5 mph 64% 0 in
09:54 51.1 °F 39 °F 29.8 in OSO 6.2 mph 11.8 mph 63.3% 0 in
09:59 51.3 °F 38.8 °F 29.8 in OSO 6.2 mph 12.5 mph 62.2% 0 in
10:04 51.6 °F 38.5 °F 29.8 in OSO 6.2 mph 16.3 mph 61% 0 in
10:09 51.6 °F 38.3 °F 29.8 in OSO 6.7 mph 16.1 mph 60% 0 in
10:14 51.8 °F 38.7 °F 29.8 in OSO 7.6 mph 15.2 mph 60.5% 0 in
10:19 52.2 °F 38.3 °F 29.8 in OSO 8 mph 17.5 mph 59.5% 0 in
10:24 52.2 °F 38.5 °F 29.8 in OSO 8.7 mph 18.5 mph 59.3% 0 in
10:29 52.3 °F 38.5 °F 29.8 in OSO 8.9 mph 15 mph 59% 0 in
10:34 52.5 °F 38.5 °F 29.8 in OSO 9.2 mph 13.8 mph 59% 0 in
10:39 52.9 °F 38.7 °F 29.8 in OSO 8.6 mph 13.8 mph 58.4% 0 in
10:44 53.1 °F 38.7 °F 29.8 in Oeste 7.6 mph 14.5 mph 58% 0 in
10:49 53.2 °F 37.8 °F 29.8 in Oeste 7.6 mph 15 mph 55.7% 0 in
10:54 53.2 °F 37.6 °F 29.8 in Oeste 7.6 mph 18.4 mph 55% 0 in
10:59 53.2 °F 37.6 °F 29.8 in Oeste 8.2 mph 18.4 mph 55% 0 in
11:04 53.4 °F 37.2 °F 29.8 in Oeste 9.2 mph 17.5 mph 54.2% 0 in
11:09 53.4 °F 37.4 °F 29.8 in Oeste 9.4 mph 16.1 mph 54.6% 0 in
11:14 53.6 °F 37.4 °F 29.8 in Oeste 10 mph 11.8 mph 54.2% 0 in
11:19 54 °F 37.6 °F 29.8 in Oeste 9.1 mph 15 mph 54% 0 in
11:24 54 °F 37.2 °F 29.8 in ONO 7.4 mph 16.3 mph 53.2% 0 in
11:29 54 °F 37.2 °F 29.8 in Oeste 7.8 mph 17.5 mph 53% 0 in
11:34 54.1 °F 37.2 °F 29.8 in Oeste 8.7 mph 17.5 mph 52.8% 0 in
11:39 54.3 °F 37 °F 29.8 in Oeste 8.9 mph 16.3 mph 52.1% 0 in
11:44 54.5 °F 37 °F 29.8 in Oeste 9.2 mph 20.7 mph 51.8% 0 in
11:49 54.9 °F 37.2 °F 29.8 in Oeste 9.4 mph 17.3 mph 51.3% 0 in
11:54 55 °F 37.2 °F 29.8 in Oeste 9.7 mph 17.5 mph 51% 0 in
11:59 55.2 °F 37.2 °F 29.8 in ONO 9.5 mph 17.3 mph 50.5% 0 in
12:04 55.2 °F 36.9 °F 29.8 in Oeste 9.2 mph 16.1 mph 50% 0 in
12:09 55.4 °F 37.4 °F 29.8 in Oeste 9.2 mph 16.1 mph 50.6% 0 in
12:14 55.6 °F 37.2 °F 29.8 in Oeste 9.2 mph 14 mph 50% 0 in
12:19 55.6 °F 37.2 °F 29.8 in ONO 9.4 mph 19 mph 49.8% 0 in
12:24 55.9 °F 37.4 °F 29.8 in Oeste 9.7 mph 18.4 mph 49.7% 0 in
12:29 56.1 °F 37.2 °F 29.8 in Oeste 9.4 mph 15 mph 49% 0 in
12:34 56.5 °F 37.2 °F 29.8 in Oeste 8.7 mph 18.4 mph 48.6% 0 in
12:39 56.7 °F 37.2 °F 29.8 in Oeste 9.1 mph 18.4 mph 47.9% 0 in
12:44 56.8 °F 36.9 °F 29.8 in OSO 9.7 mph 16.1 mph 47.3% 0 in
12:49 57 °F 37 °F 29.8 in Oeste 9.7 mph 19.2 mph 47% 0 in
12:54 57.2 °F 36.9 °F 29.8 in Oeste 9.7 mph 19.6 mph 46.2% 0 in
12:59 57.6 °F 37.2 °F 29.8 in Oeste 9.3 mph 18.5 mph 46.4% 0 in
13:04 57.7 °F 36.5 °F 29.8 in Oeste 8.7 mph 23.5 mph 44.9% 0 in
13:09 57.6 °F 36.1 °F 29.8 in Oeste 10.1 mph 23 mph 44.5% 0 in
13:14 57.6 °F 36.5 °F 29.7 in Oeste 12.5 mph 19.6 mph 45% 0 in
13:19 57.7 °F 36.5 °F 29.7 in Oeste 12.2 mph 23.5 mph 44.9% 0 in
13:24 57.9 °F 36.1 °F 29.7 in Oeste 11.8 mph 21.9 mph 44.1% 0 in
13:29 57.9 °F 36 °F 29.7 in Oeste 12 mph 25.3 mph 43.7% 0 in
13:34 58.1 °F 35.8 °F 29.7 in Oeste 12.3 mph 25.6 mph 43% 0 in
13:39 58.5 °F 36 °F 29.7 in ONO 12.6 mph 20.7 mph 43% 0 in
13:44 58.5 °F 35.8 °F 29.7 in Oeste 13 mph 22.3 mph 42.6% 0 in
13:49 58.6 °F 35.8 °F 29.7 in Oeste 13.2 mph 21.9 mph 42.2% 0 in
13:54 58.8 °F 36.1 °F 29.7 in Oeste 13.5 mph 20.8 mph 42.8% 0 in
13:59 58.8 °F 36.5 °F 29.7 in Oeste 13.3 mph 25.3 mph 43% 0 in
14:04 58.8 °F 36.1 °F 29.7 in ONO 13 mph 21.9 mph 42.5% 0 in
14:09 59 °F 36 °F 29.7 in Oeste 13.5 mph 24.2 mph 42.2% 0 in
14:14 59 °F 35.8 °F 29.7 in Oeste 14.5 mph 21.9 mph 42% 0 in
14:19 59.2 °F 36 °F 29.7 in Oeste 14.2 mph 23 mph 42% 0 in
14:24 59.2 °F 36.1 °F 29.7 in Oeste 13.5 mph 21.3 mph 42.2% 0 in
14:29 59.2 °F 36.5 °F 29.7 in Oeste 12.9 mph 22.5 mph 42.6% 0 in
14:34 59 °F 36.3 °F 29.7 in Oeste 11.8 mph 23 mph 42.5% 0 in
14:39 59.4 °F 36.7 °F 29.7 in Oeste 11.6 mph 20.7 mph 42.9% 0 in
14:44 59.4 °F 36.3 °F 29.7 in Oeste 11.2 mph 24.2 mph 42.1% 0 in
14:49 59.4 °F 36.1 °F 29.7 in OSO 11.6 mph 22.3 mph 41.9% 0 in
14:54 59.5 °F 36 °F 29.7 in Oeste 12.3 mph 20.7 mph 41.3% 0 in
14:59 59.5 °F 36.1 °F 29.7 in Oeste 12.1 mph 23 mph 41.7% 0 in
15:04 59.4 °F 36.3 °F 29.7 in ONO 11.8 mph 19.6 mph 42.3% 0 in
15:09 59.4 °F 36.9 °F 29.7 in ONO 11.2 mph 16.3 mph 43% 0 in
15:14 59.4 °F 36.1 °F 29.7 in ONO 10.2 mph 21.3 mph 42% 0 in
15:19 59 °F 36.5 °F 29.7 in ONO 10.6 mph 18.4 mph 43% 0 in
15:24 58.8 °F 36.3 °F 29.7 in Oeste 11.4 mph 21.3 mph 42.9% 0 in
15:29 59 °F 36.5 °F 29.7 in Oeste 11.4 mph 20.7 mph 42.9% 0 in
15:34 59.2 °F 36.7 °F 29.7 in Oeste 11.4 mph 16.3 mph 42.9% 0 in
15:39 59.2 °F 36.7 °F 29.7 in Oeste 10.4 mph 14 mph 42.9% 0 in
15:44 59.2 °F 36.7 °F 29.7 in Oeste 8.7 mph 19 mph 43% 0 in
15:49 59.2 °F 36.1 °F 29.7 in Oeste 9.4 mph 17.5 mph 42.3% 0 in
15:54 58.8 °F 36.1 °F 29.7 in Oeste 10.7 mph 14 mph 42.7% 0 in
15:59 58.6 °F 36 °F 29.7 in Oeste 9.7 mph 18.5 mph 42.7% 0 in
16:04 58.5 °F 36 °F 29.7 in Oeste 8.1 mph 19 mph 43% 0 in
16:09 58.6 °F 36.3 °F 29.7 in Oeste 8.8 mph 20.8 mph 43.3% 0 in
16:14 58.8 °F 36.3 °F 29.7 in Oeste 10.2 mph 20.7 mph 43% 0 in
16:19 58.8 °F 36.5 °F 29.7 in OSO 10.1 mph 17.5 mph 43% 0 in
16:24 59 °F 36.5 °F 29.7 in OSO 10 mph 17.5 mph 43% 0 in
16:29 59.2 °F 36.7 °F 29.7 in Oeste 9.6 mph 17.5 mph 43% 0 in
16:34 59.2 °F 36.7 °F 29.7 in OSO 8.7 mph 15 mph 43% 0 in
16:39 59.2 °F 36.7 °F 29.7 in OSO 8.6 mph 13.8 mph 43% 0 in
16:44 58.8 °F 36.5 °F 29.7 in OSO 8.5 mph 11.5 mph 43.2% 0 in
16:49 58.6 °F 36.3 °F 29.7 in Oeste 7.8 mph 12.7 mph 43% 0 in
16:54 58.5 °F 36 °F 29.7 in OSO 6.4 mph 10.4 mph 43% 0 in
16:59 58.3 °F 36.1 °F 29.7 in OSO 6.3 mph 13.8 mph 43.5% 0 in
17:04 58.5 °F 36.5 °F 29.7 in OSO 6.2 mph 11.8 mph 44% 0 in
17:09 58.5 °F 36.5 °F 29.7 in OSO 6.3 mph 10.4 mph 43.9% 0 in
17:14 58.5 °F 36.5 °F 29.7 in OSO 6.4 mph 10.4 mph 44% 0 in
17:19 58.3 °F 36.3 °F 29.7 in OSO 6.2 mph 9.7 mph 44% 0 in
17:24 58.1 °F 36.3 °F 29.7 in Oeste 5.9 mph 9.2 mph 44.1% 0 in
17:29 57.9 °F 36.7 °F 29.7 in ONO 5.7 mph 15 mph 45% 0 in
17:34 57.7 °F 36.1 °F 29.7 in Oeste 5.2 mph 16.1 mph 44.3% 0 in
17:39 57.7 °F 36 °F 29.7 in ONO 6.4 mph 12.7 mph 44.2% 0 in
17:44 57.6 °F 36 °F 29.7 in ONO 8.5 mph 19.7 mph 44.5% 0 in
17:49 57.4 °F 36.1 °F 29.7 in Oeste 8.5 mph 19.6 mph 44.9% 0 in
17:54 57 °F 36 °F 29.8 in Oeste 8.5 mph 18.5 mph 45% 0 in
17:59 57 °F 36 °F 29.8 in Oeste 9.1 mph 17.3 mph 45% 0 in
18:04 56.8 °F 36.1 °F 29.8 in OSO 10 mph 19.2 mph 45.5% 0 in
18:09 56.7 °F 36.1 °F 29.8 in Oeste 9.5 mph 19.6 mph 46% 0 in
18:14 56.7 °F 36.1 °F 29.8 in Oeste 8.7 mph 15 mph 46% 0 in
18:19 56.5 °F 36 °F 29.8 in Oeste 8.7 mph 13.8 mph 46% 0 in
18:24 56.3 °F 36.1 °F 29.8 in Oeste 8.7 mph 13.8 mph 46.8% 0 in
18:29 56.1 °F 36.1 °F 29.8 in Oeste 8.4 mph 15 mph 47% 0 in
18:34 56.1 °F 36.1 °F 29.8 in Oeste 8.1 mph 15.6 mph 47% 0 in
18:39 56.1 °F 36.1 °F 29.8 in Oeste 8.3 mph 16.1 mph 47% 0 in
18:44 56.1 °F 36.1 °F 29.8 in Oeste 8.7 mph 14.5 mph 47% 0 in
18:49 55.9 °F 36 °F 29.8 in Oeste 8.6 mph 16.1 mph 47% 0 in
18:54 55.9 °F 36 °F 29.8 in Oeste 8.5 mph 17.5 mph 47% 0 in
18:59 55.9 °F 36 °F 29.8 in Oeste 9 mph 17.3 mph 47% 0 in
19:04 55.9 °F 36 °F 29.8 in Oeste 9.7 mph 16.3 mph 47% 0 in
19:09 55.9 °F 36 °F 29.8 in Oeste 9.4 mph 16.1 mph 47% 0 in
19:14 55.9 °F 36 °F 29.8 in Oeste 8.7 mph 14 mph 47% 0 in
19:19 55.9 °F 35.8 °F 29.8 in Oeste 8.6 mph 13.8 mph 46.7% 0 in
19:24 55.9 °F 36 °F 29.8 in Oeste 8.5 mph 15 mph 46.9% 0 in
19:29 55.9 °F 36 °F 29.8 in Oeste 8.2 mph 14.7 mph 47% 0 in
19:34 55.8 °F 35.8 °F 29.8 in Oeste 7.6 mph 15 mph 47% 0 in
19:39 55.8 °F 35.8 °F 29.8 in Oeste 7.6 mph 12.7 mph 47% 0 in
19:44 55.6 °F 35.8 °F 29.8 in ONO 7.6 mph 16.3 mph 47% 0 in
19:49 55.8 °F 35.8 °F 29.8 in Oeste 7.8 mph 15 mph 47% 0 in
19:54 55.8 °F 35.8 °F 29.8 in Oeste 8.1 mph 15.2 mph 47% 0 in
19:59 55.8 °F 35.8 °F 29.8 in Oeste 8.3 mph 13 mph 47% 0 in
20:04 55.6 °F 35.8 °F 29.8 in Oeste 8.7 mph 12.7 mph 47% 0 in
20:09 55.6 °F 36.1 °F 29.8 in Oeste 7.8 mph 11.5 mph 48% 0 in
20:14 55.6 °F 35.8 °F 29.8 in Oeste 6.2 mph 10.7 mph 47.2% 0 in
20:19 55.6 °F 36 °F 29.8 in Oeste 5.9 mph 8.1 mph 47.5% 0 in
20:24 55.6 °F 36.1 °F 29.8 in Oeste 5.4 mph 11.5 mph 48% 0 in
20:29 55.2 °F 36 °F 29.8 in OSO 5.3 mph 9.7 mph 48% 0 in
20:34 55.2 °F 36 °F 29.8 in OSO 5.2 mph 10.4 mph 48% 0 in
20:39 55.2 °F 36 °F 29.8 in SO 5.3 mph 8.1 mph 48% 0 in
20:44 55 °F 36 °F 29.8 in SO 5.4 mph 6.2 mph 48.7% 0 in
20:49 54.9 °F 36 °F 29.8 in OSO 4.9 mph 7.4 mph 49.1% 0 in
20:54 54.5 °F 36.3 °F 29.8 in SO 4 mph 8.5 mph 50% 0 in
20:59 54.3 °F 36.1 °F 29.8 in SO 4.5 mph 6.9 mph 50.1% 0 in
21:04 54.3 °F 36.5 °F 29.8 in SO 5.2 mph 8.1 mph 51% 0 in
21:09 54.1 °F 36.3 °F 29.8 in SO 5.2 mph 8.1 mph 51% 0 in
21:14 54.1 °F 36.5 °F 29.8 in SO 5.2 mph 6.9 mph 51% 0 in
21:19 54.3 °F 36.5 °F 29.8 in SO 5 mph 6.9 mph 50.8% 0 in
21:24 54.3 °F 36.1 °F 29.8 in SO 4.7 mph 9.2 mph 50% 0 in
21:29 54.7 °F 36.3 °F 29.8 in OSO 4.7 mph 8.1 mph 50% 0 in
21:34 54.5 °F 36.1 °F 29.8 in Oeste 4.7 mph 4.6 mph 50% 0 in
21:39 54.1 °F 36.3 °F 29.8 in SSO 4 mph 5.9 mph 50.5% 0 in
21:44 53.6 °F 36.7 °F 29.8 in Sur 2.9 mph 8.5 mph 52.4% 0 in
21:49 52.9 °F 36.9 °F 29.8 in Sur 3.4 mph 8.1 mph 54.3% 0 in
21:54 52.3 °F 36.9 °F 29.8 in SSO 4.3 mph 8.5 mph 55.2% 0 in
21:59 52.2 °F 36.7 °F 29.8 in SSO 4.5 mph 10 mph 55.7% 0 in
22:04 52.2 °F 36.5 °F 29.8 in SSO 4.7 mph 11.8 mph 55% 0 in
22:09 52.3 °F 36.5 °F 29.8 in Sur 5.3 mph 11.2 mph 54.9% 0 in
22:14 52.5 °F 36.3 °F 29.8 in Sur 6.4 mph 11.5 mph 54% 0 in
22:19 52.7 °F 36.1 °F 29.8 in Sur 6.2 mph 8.5 mph 53.4% 0 in
22:24 52.9 °F 36.1 °F 29.8 in Sur 5.9 mph 11.8 mph 53% 0 in
22:29 52.7 °F 36 °F 29.8 in Sur 6.5 mph 15.2 mph 52.8% 0 in
22:34 53.2 °F 35.8 °F 29.8 in SSE 7.4 mph 18.4 mph 51.6% 0 in
22:39 54 °F 36 °F 29.8 in SSO 7.8 mph 11.5 mph 50.4% 0 in
22:44 54.1 °F 35.8 °F 29.8 in SO 8.5 mph 11.5 mph 49.5% 0 in
22:49 54.3 °F 35.6 °F 29.8 in OSO 7.5 mph 8.5 mph 49.1% 0 in
22:54 54.1 °F 36 °F 29.8 in SO 5.4 mph 9.2 mph 50% 0 in
22:59 54 °F 35.6 °F 29.8 in SO 5.4 mph 11.8 mph 50% 0 in
23:04 53.6 °F 36 °F 29.8 in SO 5.4 mph 8.1 mph 50.9% 0 in
23:09 53.4 °F 35.8 °F 29.8 in SO 5.2 mph 7.4 mph 51% 0 in
23:14 53.2 °F 35.6 °F 29.8 in SO 4.7 mph 6.2 mph 51% 0 in
23:19 53.1 °F 35.4 °F 29.8 in SSO 4.5 mph 8.1 mph 51% 0 in
23:24 53.1 °F 35.4 °F 29.8 in SSO 4.3 mph 8.1 mph 51% 0 in
23:29 53.1 °F 35.4 °F 29.8 in SO 4.6 mph 8.1 mph 51% 0 in
23:34 52.9 °F 35.6 °F 29.8 in SO 5.2 mph 6.9 mph 51.8% 0 in
23:39 52.7 °F 35.6 °F 29.8 in OSO 5 mph 6.9 mph 52% 0 in
23:44 52.5 °F 35.6 °F 29.8 in SO 4.7 mph 5.9 mph 52.3% 0 in
Murcia-Puente Tocinos, Espa?a
Compliments of Weather Underground - 3 mb

La estación de MeteoMurcia.com, publica sus datos en los siguientes proyectos:

Weather Underground PWS IMURCIAP2 Meteoclimatic www.awekas.at

W3Counter
Web Analytics